Time;durP1;ratioP1;P1;durP2;ratioP2;P2;SDS_P1;SDS_P2;PMS_P1;PMS_P2;Temp;Humidity;BMP_temperature;BMP_pressure;BME280_temperature;BME280_humidity;BME280_pressure;Samples;Min_cycle;Max_cycle;Signal;HPM_P1;HPM_P2
2022/06/16 00:00:38;;;;;;;1.90;1.40;;;26.50;47.50;;;;;;5038746;28;20469;-64
2022/06/16 00:03:06;;;;;;;1.70;1.25;;;26.50;47.60;;;;;;5039910;28;20029;-65
2022/06/16 00:05:36;;;;;;;1.95;1.30;;;26.50;47.50;;;;;;5040097;28;21614;-62
2022/06/16 00:08:03;;;;;;;1.35;1.10;;;26.60;47.50;;;;;;5037339;28;20556;-65
2022/06/16 00:10:30;;;;;;;1.38;1.10;;;26.50;47.40;;;;;;5038802;28;21341;-62
2022/06/16 00:12:55;;;;;;;1.33;1.10;;;26.60;47.50;;;;;;5038752;28;20107;-64
2022/06/16 00:15:23;;;;;;;1.27;1.10;;;26.60;47.50;;;;;;5038295;28;20568;-66
2022/06/16 00:17:49;;;;;;;1.27;1.10;;;26.60;47.40;;;;;;5037958;28;20397;-61
2022/06/16 00:20:15;;;;;;;1.52;1.10;;;26.60;47.40;;;;;;5038516;28;20040;-65
2022/06/16 00:22:41;;;;;;;1.75;1.20;;;26.60;47.40;;;;;;5037992;28;20039;-64
2022/06/16 00:25:07;;;;;;;1.40;1.20;;;26.60;47.30;;;;;;5038353;28;20028;-61
2022/06/16 00:27:33;;;;;;;1.83;1.20;;;26.60;47.30;;;;;;5040771;28;20079;-64
2022/06/16 00:29:59;;;;;;;2.13;1.33;;;26.70;47.90;;;;;;5039032;28;20585;-66
2022/06/16 00:32:25;;;;;;;1.95;1.10;;;26.70;47.30;;;;;;5039242;28;20044;-66
2022/06/16 00:34:51;;;;;;;1.40;1.20;;;26.70;47.30;;;;;;5038818;28;20407;-61
2022/06/16 00:37:16;;;;;;;1.88;1.27;;;26.70;47.20;;;;;;5038230;28;20039;-64
2022/06/16 00:39:42;;;;;;;2.97;1.38;;;26.80;47.20;;;;;;5036913;28;20044;-64
2022/06/16 00:42:20;;;;;;;1.48;1.20;;;26.80;47.00;;;;;;5039680;28;20126;-61
2022/06/16 00:44:50;;;;;;;1.85;1.20;;;26.90;47.00;;;;;;5038094;28;21769;-64
2022/06/16 00:47:22;;;;;;;2.05;1.30;;;26.90;47.00;;;;;;5039422;28;20025;-64
2022/06/16 00:49:50;;;;;;;2.65;1.27;;;26.90;46.90;;;;;;5037639;28;20113;-63
2022/06/16 00:52:19;;;;;;;2.10;1.40;;;26.90;46.80;;;;;;5038002;28;20033;-63
2022/06/16 00:55:06;;;;;;;1.58;1.30;;;26.90;46.80;;;;;;5033932;28;20053;-65
2022/06/16 00:57:49;;;;;;;1.70;1.30;;;27.00;46.80;;;;;;5037372;28;20029;-64
2022/06/16 01:02:51;;;;;;;1.55;1.20;;;27.00;46.70;;;;;;5037087;28;20446;-65
2022/06/16 01:05:17;;;;;;;1.90;1.40;;;27.00;46.70;;;;;;5035062;28;20162;-64
2022/06/16 01:07:46;;;;;;;1.58;1.30;;;27.00;46.60;;;;;;5035184;28;20029;-65
2022/06/16 01:10:14;;;;;;;1.58;1.17;;;27.00;46.60;;;;;;5036646;28;20468;-64
2022/06/16 01:16:14;;;;;;;1.58;1.10;;;27.10;46.60;;;;;;5035406;28;20063;-63
2022/06/16 01:19:12;;;;;;;1.80;1.30;;;27.10;46.50;;;;;;5037101;28;20052;-62
2022/06/16 01:21:59;;;;;;;1.45;1.17;;;27.10;46.40;;;;;;5002662;28;20113;-64
2022/06/16 01:24:43;;;;;;;1.45;1.10;;;27.20;46.50;;;;;;5032835;28;20496;-62
2022/06/16 01:27:37;;;;;;;1.83;1.30;;;27.10;46.40;;;;;;5035729;28;20036;-66
2022/06/16 01:30:05;;;;;;;1.40;1.30;;;27.20;46.50;;;;;;5034743;28;20028;-64
2022/06/16 01:32:52;;;;;;;2.10;1.20;;;27.20;46.40;;;;;;5034484;28;20055;-61
2022/06/16 01:35:30;;;;;;;1.92;1.30;;;27.20;46.40;;;;;;5034177;28;20048;-64
2022/06/16 01:38:18;;;;;;;1.38;1.20;;;27.20;46.40;;;;;;5033193;28;20029;-62
2022/06/16 01:41:04;;;;;;;1.70;1.30;;;27.20;46.30;;;;;;5036335;28;20679;-63
2022/06/16 01:43:42;;;;;;;1.10;1.00;;;27.20;46.40;;;;;;5035561;28;20029;-63
2022/06/16 01:46:18;;;;;;;1.30;1.00;;;27.20;46.30;;;;;;5037417;28;20031;-62
2022/06/16 01:48:47;;;;;;;1.55;1.10;;;27.20;46.30;;;;;;5036357;28;20162;-62
2022/06/16 01:51:15;;;;;;;;;;;27.20;46.40;;;;;;5035453;28;20486;-64
2022/06/16 01:53:44;;;;;;;2.05;1.20;;;27.20;46.40;;;;;;5033898;28;20002;-64
2022/06/16 01:56:39;;;;;;;1.33;1.10;;;27.20;46.40;;;;;;5034949;28;20045;-62
2022/06/16 01:59:11;;;;;;;1.33;1.10;;;27.20;46.40;;;;;;5036202;28;20090;-66
2022/06/16 02:01:43;;;;;;;1.30;1.10;;;27.10;46.30;;;;;;5036810;28;20029;-62
2022/06/16 02:04:18;;;;;;;1.20;1.02;;;27.10;46.40;;;;;;5037194;28;20596;-66
2022/06/16 02:06:48;;;;;;;1.92;1.10;;;27.10;46.30;;;;;;5037287;28;20013;-65
2022/06/16 02:09:25;;;;;;;1.20;1.10;;;27.10;46.40;;;;;;5034025;28;20048;-64
2022/06/16 02:11:53;;;;;;;1.25;1.00;;;27.00;46.30;;;;;;5036663;28;20049;-64
2022/06/16 02:14:40;;;;;;;1.08;0.98;;;27.10;46.40;;;;;;5033615;28;20397;-64
2022/06/16 02:17:07;;;;;;;1.20;1.00;;;27.00;46.40;;;;;;5035938;28;20040;-63
2022/06/16 02:19:33;;;;;;;1.15;1.00;;;27.00;46.40;;;;;;5037332;28;20480;-64
2022/06/16 02:21:59;;;;;;;1.20;1.10;;;27.00;46.40;;;;;;5034879;28;20025;-63
2022/06/16 02:24:27;;;;;;;1.20;1.00;;;27.00;46.40;;;;;;5033649;28;20087;-67
2022/06/16 02:26:56;;;;;;;1.40;1.10;;;27.00;46.90;;;;;;5034907;28;20465;-64
2022/06/16 02:29:38;;;;;;;1.35;0.95;;;27.00;46.40;;;;;;5036523;28;20033;-64
2022/06/16 02:32:31;;;;;;;1.35;1.02;;;27.00;46.40;;;;;;5036519;28;20456;-61
2022/06/16 02:35:05;;;;;;;1.10;1.00;;;26.90;46.40;;;;;;5034689;28;20893;-64
2022/06/16 02:37:49;;;;;;;1.17;1.08;;;26.90;46.40;;;;;;5035032;28;20447;-62
2022/06/16 02:40:42;;;;;;;1.20;1.10;;;26.90;46.40;;;;;;5035031;28;20063;-63
2022/06/16 02:43:22;;;;;;;1.33;1.10;;;26.90;46.40;;;;;;5035637;28;20513;-64
2022/06/16 02:46:00;;;;;;;1.33;1.00;;;26.90;46.40;;;;;;5035636;28;20033;-64
2022/06/16 02:48:35;;;;;;;1.08;0.98;;;26.90;46.40;;;;;;5035055;28;20055;-64
2022/06/16 02:51:14;;;;;;;1.27;1.08;;;26.90;46.50;;;;;;5036107;28;20036;-62
2022/06/16 02:56:47;;;;;;;1.45;1.10;;;26.80;46.40;;;;;;5035555;28;20076;-64
2022/06/16 02:59:36;;;;;;;1.30;1.02;;;26.80;46.40;;;;;;5036198;28;20086;-64
2022/06/16 03:02:08;;;;;;;1.52;1.10;;;26.80;46.50;;;;;;5038725;28;20025;-64
2022/06/16 03:04:40;;;;;;;1.20;0.95;;;26.80;46.50;;;;;;5038953;28;20033;-62
2022/06/16 03:07:06;;;;;;;1.30;1.02;;;26.80;46.50;;;;;;5038926;28;20116;-64
2022/06/16 03:09:32;;;;;;;1.20;1.02;;;26.70;46.50;;;;;;5037306;28;20045;-67
2022/06/16 03:11:57;;;;;;;1.30;1.10;;;26.70;46.50;;;;;;5038995;28;20029;-62
2022/06/16 03:14:23;;;;;;;1.70;1.00;;;26.70;46.50;;;;;;5037622;28;20043;-64
2022/06/16 03:16:49;;;;;;;1.10;1.00;;;26.70;46.50;;;;;;5038585;28;20036;-66
2022/06/16 03:19:17;;;;;;;1.38;1.05;;;26.70;46.50;;;;;;5037953;28;20552;-65
2022/06/16 03:21:43;;;;;;;3.27;1.67;;;26.70;46.60;;;;;;5039800;28;20040;-66
2022/06/16 03:24:09;;;;;;;1.02;0.93;;;26.60;46.50;;;;;;5036059;28;20489;-64
2022/06/16 03:26:34;;;;;;;1.15;0.90;;;26.60;46.50;;;;;;5039196;28;20099;-64
2022/06/16 03:29:00;;;;;;;1.15;1.00;;;26.60;46.60;;;;;;5037756;28;20132;-62
2022/06/16 03:31:26;;;;;;;1.15;0.90;;;26.60;46.60;;;;;;5038083;28;20128;-62
2022/06/16 03:33:51;;;;;;;1.42;1.00;;;26.60;46.60;;;;;;5037724;28;20044;-65
2022/06/16 03:36:17;;;;;;;1.10;1.00;;;26.60;46.60;;;;;;5038572;28;20451;-62
2022/06/16 03:38:43;;;;;;;1.33;1.10;;;26.60;46.60;;;;;;5036735;28;20457;-64
2022/06/16 03:41:10;;;;;;;1.17;1.00;;;26.60;46.60;;;;;;5039006;28;20040;-63
2022/06/16 03:43:36;;;;;;;1.35;1.10;;;26.50;46.60;;;;;;5035651;28;20380;-63
2022/06/16 03:46:02;;;;;;;1.40;1.20;;;26.50;46.60;;;;;;5041160;28;21220;-60
2022/06/16 03:48:28;;;;;;;1.27;0.95;;;26.50;46.60;;;;;;5038298;28;20037;-66
2022/06/16 03:50:53;;;;;;;1.58;1.10;;;26.50;46.70;;;;;;5038605;28;20087;-62
2022/06/16 03:53:19;;;;;;;1.20;1.00;;;26.50;46.60;;;;;;5036795;28;20225;-66
2022/06/16 03:55:45;;;;;;;1.10;1.00;;;26.50;46.60;;;;;;5037770;28;20032;-64
2022/06/16 03:58:13;;;;;;;1.38;0.95;;;26.40;46.60;;;;;;5038022;28;20020;-61
2022/06/16 04:00:40;;;;;;;0.97;0.90;;;26.50;46.70;;;;;;5031813;28;20057;-62
2022/06/16 04:05:50;;;;;;;1.05;0.90;;;26.40;46.60;;;;;;5038774;28;20055;-64
2022/06/16 04:08:16;;;;;;;0.98;0.90;;;26.40;46.70;;;;;;5037368;28;20380;-62
2022/06/16 04:10:43;;;;;;;1.08;0.90;;;26.40;46.70;;;;;;5035249;28;20068;-64
2022/06/16 04:13:09;;;;;;;1.38;0.98;;;26.40;46.70;;;;;;5038577;28;21210;-61
2022/06/16 04:15:35;;;;;;;1.00;0.90;;;26.40;46.70;;;;;;5037475;28;20068;-66
2022/06/16 04:18:01;;;;;;;1.45;1.10;;;26.30;46.70;;;;;;5038705;28;20029;-62
2022/06/16 04:20:26;;;;;;;1.33;0.95;;;26.30;46.70;;;;;;5038206;28;20086;-64
2022/06/16 04:22:52;;;;;;;1.20;0.90;;;26.30;46.70;;;;;;5036774;28;20702;-64
2022/06/16 04:25:21;;;;;;;1.10;0.98;;;26.30;46.70;;;;;;5036642;28;20162;-62
2022/06/16 04:27:47;;;;;;;1.10;0.93;;;26.30;46.70;;;;;;5037844;28;20025;-65
2022/06/16 04:30:15;;;;;;;1.20;1.00;;;26.30;46.70;;;;;;5037211;28;20401;-64
2022/06/16 04:32:41;;;;;;;1.08;0.90;;;26.30;46.80;;;;;;5040375;28;20067;-64
2022/06/16 04:35:07;;;;;;;1.10;1.00;;;26.30;46.80;;;;;;5037065;28;20028;-64
2022/06/16 04:37:34;;;;;;;0.95;0.85;;;26.30;46.80;;;;;;5037945;28;20116;-64
2022/06/16 04:40:00;;;;;;;0.90;0.80;;;26.20;46.70;;;;;;5034742;28;20035;-65
2022/06/16 04:42:26;;;;;;;0.88;0.82;;;26.20;46.70;;;;;;5037487;28;20100;-66
2022/06/16 04:44:51;;;;;;;1.05;0.90;;;26.20;46.80;;;;;;5036137;28;20115;-62
2022/06/16 04:47:17;;;;;;;1.08;0.90;;;26.30;46.90;;;;;;5038325;28;20041;-64
2022/06/16 04:49:48;;;;;;;1.08;0.90;;;26.20;46.80;;;;;;5037281;28;20527;-62
2022/06/16 04:52:15;;;;;;;1.13;0.93;;;26.20;46.80;;;;;;5035201;28;20067;-66
2022/06/16 04:54:44;;;;;;;1.23;0.90;;;26.20;46.80;;;;;;5035605;28;20029;-64
2022/06/16 04:57:10;;;;;;;0.85;0.80;;;26.20;46.80;;;;;;5038518;28;20037;-63
2022/06/16 04:59:36;;;;;;;1.48;1.10;;;26.20;46.90;;;;;;5037338;28;20493;-65
2022/06/16 05:02:02;;;;;;;1.10;0.90;;;26.20;46.90;;;;;;5035883;28;20069;-62
2022/06/16 05:04:28;;;;;;;0.70;0.70;;;26.10;46.80;;;;;;5036294;28;20369;-61
2022/06/16 05:06:55;;;;;;;1.00;0.90;;;26.10;46.90;;;;;;5037864;28;20446;-62
2022/06/16 05:09:21;;;;;;;1.00;0.90;;;26.10;46.90;;;;;;5033192;28;20017;-63
2022/06/16 05:11:47;;;;;;;1.23;1.10;;;26.10;46.90;;;;;;5037252;28;20035;-66
2022/06/16 05:14:12;;;;;;;1.10;0.90;;;26.10;46.90;;;;;;5036722;28;20040;-66
2022/06/16 05:16:38;;;;;;;1.00;0.80;;;26.10;46.90;;;;;;5020046;28;20040;-62
2022/06/16 05:19:04;;;;;;;0.85;0.82;;;26.10;46.90;;;;;;5036339;28;20032;-61
2022/06/16 05:21:29;;;;;;;0.80;0.80;;;26.10;46.90;;;;;;5037244;28;20032;-62
2022/06/16 05:23:55;;;;;;;1.10;1.00;;;26.10;47.00;;;;;;5034208;28;20468;-64
2022/06/16 05:26:21;;;;;;;0.80;0.80;;;26.00;46.90;;;;;;5037656;28;20067;-66
2022/06/16 05:28:47;;;;;;;1.08;0.98;;;26.10;47.00;;;;;;5037544;28;20054;-67
2022/06/16 05:31:12;;;;;;;1.17;0.90;;;26.00;46.90;;;;;;5039099;28;20129;-64
2022/06/16 05:33:38;;;;;;;1.15;0.82;;;26.10;47.00;;;;;;5037959;28;20025;-66
2022/06/16 05:36:10;;;;;;;1.20;0.90;;;26.00;46.90;;;;;;5037560;28;20122;-63
2022/06/16 05:38:36;;;;;;;1.13;0.98;;;26.00;46.90;;;;;;5034842;28;20036;-61
2022/06/16 05:41:06;;;;;;;0.88;0.82;;;26.00;46.90;;;;;;5034672;28;20668;-63
2022/06/16 05:43:33;;;;;;;1.00;0.90;;;26.00;47.00;;;;;;5035016;28;20088;-62
2022/06/16 05:45:59;;;;;;;0.98;0.88;;;26.00;47.00;;;;;;5035858;28;20509;-64
2022/06/16 05:48:25;;;;;;;1.02;0.90;;;26.00;47.00;;;;;;5035770;28;20575;-62
2022/06/16 05:50:52;;;;;;;1.35;1.00;;;26.00;47.00;;;;;;5037739;28;20147;-64
2022/06/16 05:53:17;;;;;;;1.08;0.88;;;26.00;47.10;;;;;;5032928;28;20112;-61
2022/06/16 05:55:43;;;;;;;0.80;0.80;;;26.00;47.10;;;;;;5034255;28;20089;-62
2022/06/16 05:58:09;;;;;;;1.35;0.85;;;25.90;47.00;;;;;;5035359;28;20025;-64
2022/06/16 06:00:34;;;;;;;1.17;1.00;;;25.90;47.00;;;;;;5037320;28;20052;-63
2022/06/16 06:03:01;;;;;;;0.80;0.80;;;25.90;47.00;;;;;;5035630;28;20113;-66
2022/06/16 06:05:28;;;;;;;0.95;0.80;;;25.90;47.00;;;;;;5036466;28;20017;-62
2022/06/16 06:16:26;;;;;;;3.92;3.05;;;25.60;48.60;;;;;;5034021;28;20326;-65
2022/06/16 06:18:56;;;;;;;4.95;3.10;;;25.40;49.50;;;;;;5035324;28;20033;-65
2022/06/16 06:24:08;;;;;;;5.40;3.33;;;25.10;49.70;;;;;;5034855;28;20059;-66
2022/06/16 06:26:34;;;;;;;4.25;2.83;;;25.10;49.80;;;;;;5028514;28;20035;-64
2022/06/16 06:29:00;;;;;;;3.92;3.30;;;25.10;49.80;;;;;;5034854;28;20029;-62
2022/06/16 06:31:25;;;;;;;5.18;3.50;;;25.10;50.00;;;;;;5036733;28;20430;-64
2022/06/16 06:33:51;;;;;;;4.30;3.50;;;25.00;50.00;;;;;;5036735;28;20048;-65
2022/06/16 06:36:17;;;;;;;4.07;3.03;;;24.90;50.10;;;;;;5040245;28;20040;-62
2022/06/16 06:38:42;;;;;;;3.88;3.15;;;24.80;50.10;;;;;;5038069;28;20480;-63
2022/06/16 06:41:08;;;;;;;4.55;2.70;;;24.90;50.30;;;;;;5040226;28;20025;-63
2022/06/16 06:43:33;;;;;;;4.72;2.60;;;24.80;50.70;;;;;;5038076;28;20021;-62
2022/06/16 06:45:59;;;;;;;4.75;2.90;;;24.80;50.40;;;;;;5040847;28;20048;-65
2022/06/16 06:48:24;;;;;;;5.18;3.40;;;24.80;50.60;;;;;;5040714;28;20111;-65
2022/06/16 06:50:51;;;;;;;5.45;3.25;;;24.90;50.80;;;;;;5039202;28;20449;-63
2022/06/16 06:53:17;;;;;;;3.97;2.88;;;24.90;50.20;;;;;;5036590;28;20029;-64
2022/06/16 06:55:46;;;;;;;3.90;3.30;;;24.80;51.00;;;;;;5039615;28;20043;-64
2022/06/16 06:58:17;;;;;;;3.47;2.92;;;24.80;51.00;;;;;;5039949;28;20036;-64
2022/06/16 07:00:43;;;;;;;4.13;3.15;;;24.80;51.30;;;;;;5039532;28;20493;-62
2022/06/16 07:03:10;;;;;;;3.85;2.63;;;24.80;51.40;;;;;;5025500;28;20025;-64
2022/06/16 07:05:36;;;;;;;3.15;2.20;;;24.80;51.10;;;;;;5021294;28;20046;-64
2022/06/16 07:08:02;;;;;;;3.40;2.05;;;24.80;50.90;;;;;;5036660;28;20083;-64
2022/06/16 07:10:28;;;;;;;2.40;1.80;;;24.90;50.80;;;;;;5036396;28;20025;-62
2022/06/16 07:12:54;;;;;;;3.45;1.92;;;24.90;50.60;;;;;;5037739;28;20033;-65
2022/06/16 07:15:20;;;;;;;2.33;1.58;;;24.90;50.40;;;;;;5039622;28;20021;-61
2022/06/16 07:17:46;;;;;;;1.95;1.50;;;25.00;50.30;;;;;;5040049;28;20043;-65
2022/06/16 07:20:15;;;;;;;2.70;1.90;;;25.10;50.20;;;;;;5036980;28;20044;-63
2022/06/16 07:22:41;;;;;;;2.05;1.48;;;25.10;50.00;;;;;;5037308;28;20017;-64
2022/06/16 07:25:07;;;;;;;2.90;1.60;;;25.10;49.90;;;;;;5030890;28;20472;-64
2022/06/16 07:27:33;;;;;;;2.20;1.60;;;25.10;49.70;;;;;;5036066;28;20025;-66
2022/06/16 07:29:58;;;;;;;2.72;1.75;;;25.10;49.70;;;;;;5037695;28;20032;-61
2022/06/16 07:32:24;;;;;;;1.77;1.58;;;25.10;49.60;;;;;;5039058;28;20816;-64
2022/06/16 07:34:49;;;;;;;2.50;1.90;;;25.20;49.60;;;;;;5038559;28;20113;-64
2022/06/16 07:37:15;;;;;;;3.10;1.70;;;25.20;49.50;;;;;;5040025;28;20082;-63
2022/06/16 07:39:41;;;;;;;2.30;1.70;;;25.20;49.50;;;;;;5038589;28;20132;-62
2022/06/16 07:42:08;;;;;;;2.63;1.80;;;25.20;49.40;;;;;;5038483;28;20032;-66
2022/06/16 07:44:35;;;;;;;2.50;1.70;;;25.20;49.30;;;;;;5038459;28;20047;-64
2022/06/16 07:47:00;;;;;;;2.22;1.60;;;25.20;49.30;;;;;;5038779;28;20056;-66
2022/06/16 07:49:27;;;;;;;3.42;1.73;;;25.20;49.30;;;;;;5039162;28;20029;-64
2022/06/16 07:51:55;;;;;;;2.08;1.48;;;25.20;49.20;;;;;;5039839;28;20068;-63
2022/06/16 07:54:23;;;;;;;2.30;1.60;;;25.20;49.20;;;;;;5037442;28;20028;-60
2022/06/16 07:56:49;;;;;;;2.70;1.70;;;25.20;49.20;;;;;;5038073;28;20458;-61
2022/06/16 07:59:14;;;;;;;2.78;1.60;;;25.20;49.20;;;;;;5038203;28;20039;-65
2022/06/16 08:01:40;;;;;;;2.22;1.60;;;25.20;49.20;;;;;;5039153;28;20039;-61
2022/06/16 08:04:06;;;;;;;2.10;1.58;;;25.20;49.10;;;;;;5037761;28;20044;-65
2022/06/16 08:06:34;;;;;;;2.40;1.70;;;25.20;49.10;;;;;;5038634;28;20552;-66
2022/06/16 08:09:00;;;;;;;2.35;1.60;;;25.20;49.10;;;;;;5036651;28;20037;-65
2022/06/16 08:14:10;;;;;;;1.80;1.30;;;25.20;49.10;;;;;;5037250;28;21087;-64
2022/06/16 08:16:36;;;;;;;2.17;1.52;;;25.20;49.10;;;;;;5036791;28;20155;-65
2022/06/16 08:19:04;;;;;;;2.38;1.75;;;25.20;49.00;;;;;;5039056;28;20068;-61
2022/06/16 08:21:29;;;;;;;2.50;1.60;;;25.20;49.00;;;;;;5035367;28;20143;-64
2022/06/16 08:23:55;;;;;;;2.10;1.52;;;25.20;49.00;;;;;;5034574;28;20092;-63
2022/06/16 08:26:22;;;;;;;1.90;1.50;;;25.20;49.00;;;;;;5032925;28;20036;-63
2022/06/16 08:28:50;;;;;;;1.92;1.50;;;25.20;49.00;;;;;;5037017;28;20111;-64
2022/06/16 08:31:17;;;;;;;2.33;1.50;;;25.20;48.90;;;;;;5038170;28;20137;-62
2022/06/16 08:33:43;;;;;;;2.00;1.40;;;25.20;48.90;;;;;;5035257;28;20023;-63
2022/06/16 08:36:09;;;;;;;2.17;1.60;;;25.20;48.90;;;;;;5036874;28;20444;-64
2022/06/16 08:38:35;;;;;;;1.95;1.45;;;25.20;48.90;;;;;;5034973;28;20027;-63
2022/06/16 08:41:15;;;;;;;2.50;1.35;;;25.20;48.80;;;;;;5034374;28;20108;-64
2022/06/16 08:44:07;;;;;;;2.38;1.60;;;25.20;48.80;;;;;;5035511;28;20029;-64
2022/06/16 08:46:37;;;;;;;2.13;1.50;;;25.20;48.90;;;;;;5038195;28;20044;-61
2022/06/16 08:49:15;;;;;;;2.22;1.52;;;25.20;48.80;;;;;;5038300;28;20035;-60
2022/06/16 08:52:04;;;;;;;1.85;1.25;;;25.20;48.80;;;;;;5031150;28;20032;-66
2022/06/16 08:54:54;;;;;;;2.72;1.50;;;25.20;48.80;;;;;;5004726;28;20136;-65
2022/06/16 08:57:38;;;;;;;1.85;1.40;;;25.20;48.90;;;;;;5038009;28;20028;-61
2022/06/16 09:00:07;;;;;;;2.08;1.35;;;25.20;48.80;;;;;;5034931;28;20547;-64
2022/06/16 09:02:47;;;;;;;1.80;1.27;;;25.30;48.80;;;;;;5037770;28;20981;-62
2022/06/16 09:05:29;;;;;;;1.63;1.30;;;25.20;48.80;;;;;;5036604;28;20090;-64
2022/06/16 09:08:09;;;;;;;3.05;1.40;;;25.20;48.80;;;;;;5036111;28;20477;-64
2022/06/16 09:11:19;;;;;;;2.30;1.42;;;25.20;48.80;;;;;;5037221;28;20025;-65
2022/06/16 09:14:00;;;;;;;1.90;1.48;;;25.20;48.80;;;;;;4949128;28;20146;-64
2022/06/16 09:16:41;;;;;;;2.00;1.40;;;25.20;48.80;;;;;;4946210;28;20058;-65
2022/06/16 09:19:47;;;;;;;1.70;1.30;;;25.20;48.80;;;;;;5010735;28;20067;-64
2022/06/16 09:22:24;;;;;;;2.00;1.50;;;25.20;48.80;;;;;;4920893;28;20093;-61
2022/06/16 09:25:17;;;;;;;2.10;1.40;;;25.20;48.80;;;;;;4927010;28;20031;-64
2022/06/16 09:27:57;;;;;;;2.70;1.50;;;25.20;48.70;;;;;;5010012;28;20079;-64
2022/06/16 09:30:26;;;;;;;2.10;1.48;;;25.20;48.70;;;;;;5037098;28;20444;-64
2022/06/16 09:33:00;;;;;;;2.17;1.48;;;25.20;48.80;;;;;;5039053;28;20459;-65
2022/06/16 09:35:32;;;;;;;1.80;1.30;;;25.20;48.80;;;;;;5036035;28;20067;-65
2022/06/16 09:38:02;;;;;;;1.60;1.27;;;25.20;48.80;;;;;;5037046;28;20090;-62
2022/06/16 09:40:35;;;;;;;2.33;1.48;;;25.20;48.80;;;;;;5036094;28;20588;-62
2022/06/16 09:43:10;;;;;;;1.77;1.33;;;25.20;48.80;;;;;;5036101;28;20150;-62
2022/06/16 09:45:52;;;;;;;2.15;1.40;;;25.20;48.70;;;;;;5035364;28;20024;-62
2022/06/16 09:48:41;;;;;;;1.70;1.30;;;25.20;48.80;;;;;;5034576;28;20426;-64
2022/06/16 09:51:09;;;;;;;1.90;1.40;;;25.20;48.70;;;;;;5025198;28;20147;-62
2022/06/16 09:53:50;;;;;;;2.37;1.40;;;25.20;48.80;;;;;;5035642;28;20477;-65
2022/06/16 09:56:39;;;;;;;2.22;1.38;;;25.20;48.80;;;;;;5036707;28;20318;-62
2022/06/16 09:59:13;;;;;;;1.75;1.25;;;25.30;48.80;;;;;;5035670;28;20037;-62
2022/06/16 10:01:45;;;;;;;2.22;1.30;;;25.30;48.80;;;;;;5036309;28;20052;-65
2022/06/16 10:04:11;;;;;;;2.10;1.40;;;25.30;48.80;;;;;;5036750;28;20500;-62
2022/06/16 10:07:09;;;;;;;1.75;1.33;;;25.30;48.80;;;;;;5037163;28;20093;-62
2022/06/16 10:10:01;;;;;;;2.08;1.38;;;25.30;48.80;;;;;;5032149;28;20384;-62
2022/06/16 10:12:46;;;;;;;2.40;1.50;;;25.30;48.80;;;;;;5036171;28;20106;-62
2022/06/16 10:15:49;;;;;;;2.00;1.30;;;25.30;48.80;;;;;;5036616;28;20033;-65
2022/06/16 10:18:17;;;;;;;2.30;1.40;;;25.30;48.80;;;;;;5033665;28;20029;-64
2022/06/16 10:20:43;;;;;;;2.08;1.20;;;25.30;48.80;;;;;;5034184;28;20553;-61
2022/06/16 10:23:22;;;;;;;1.52;1.20;;;25.30;48.80;;;;;;5031808;28;20103;-65
2022/06/16 10:26:02;;;;;;;1.10;1.00;;;25.30;48.70;;;;;;5035995;28;20682;-63
2022/06/16 10:28:30;;;;;;;;;;;25.30;48.70;;;;;;5037139;28;20091;-64
2022/06/16 10:30:58;;;;;;;1.38;1.20;;;25.30;48.80;;;;;;5035582;28;20310;-64
2022/06/16 10:33:30;;;;;;;1.52;1.20;;;25.30;48.70;;;;;;5036915;28;20202;-65
2022/06/16 10:35:59;;;;;;;1.70;1.30;;;25.30;48.70;;;;;;5035058;28;20048;-62
2022/06/16 10:38:28;;;;;;;1.98;1.40;;;25.30;48.70;;;;;;5035310;28;20082;-62
2022/06/16 10:40:53;;;;;;;;;;;25.30;48.70;;;;;;5037934;28;20132;-64
2022/06/16 10:43:20;;;;;;;1.80;1.40;;;25.30;48.70;;;;;;5035987;28;20007;-61
2022/06/16 10:45:59;;;;;;;2.45;1.40;;;25.30;49.20;;;;;;5035620;28;20029;-64
2022/06/16 10:48:34;;;;;;;2.00;1.40;;;25.30;48.70;;;;;;5036124;28;20083;-65
2022/06/16 10:51:21;;;;;;;1.83;1.40;;;25.30;48.70;;;;;;5035171;28;20024;-64
2022/06/16 10:54:08;;;;;;;1.67;1.33;;;25.30;48.70;;;;;;5032724;28;20179;-64
2022/06/16 10:56:34;;;;;;;1.98;1.30;;;25.30;48.70;;;;;;5021376;28;20069;-64
2022/06/16 10:59:24;;;;;;;1.80;1.30;;;25.30;48.70;;;;;;5033320;28;20417;-61
2022/06/16 11:02:11;;;;;;;2.17;1.50;;;25.30;48.70;;;;;;5023505;28;20761;-63
2022/06/16 11:04:43;;;;;;;1.73;1.30;;;25.30;48.70;;;;;;5034546;28;20458;-61
2022/06/16 11:07:12;;;;;;;2.50;1.45;;;25.30;48.70;;;;;;5032467;28;20051;-64
2022/06/16 11:09:38;;;;;;;1.90;1.40;;;25.30;48.70;;;;;;5033243;28;20086;-63
2022/06/16 11:12:13;;;;;;;1.90;1.42;;;25.40;48.70;;;;;;5032270;28;20041;-61
2022/06/16 11:14:59;;;;;;;2.38;1.50;;;25.40;48.70;;;;;;5032102;28;20231;-61
2022/06/16 11:17:34;;;;;;;2.00;1.50;;;25.40;48.70;;;;;;5032345;28;20032;-63
2022/06/16 11:20:09;;;;;;;2.53;1.50;;;25.40;48.70;;;;;;5032185;28;20100;-63
2022/06/16 11:22:40;;;;;;;1.95;1.30;;;25.40;48.70;;;;;;5035327;28;20097;-64
2022/06/16 11:25:32;;;;;;;1.98;1.52;;;25.40;48.70;;;;;;5036714;28;20069;-61
2022/06/16 11:27:59;;;;;;;1.90;1.50;;;25.40;48.70;;;;;;5036528;28;21642;-61
2022/06/16 11:30:30;;;;;;;1.50;1.30;;;25.40;48.60;;;;;;5036966;28;20033;-65
2022/06/16 11:32:56;;;;;;;1.67;1.30;;;25.40;48.60;;;;;;5036755;28;20033;-62
2022/06/16 11:35:44;;;;;;;2.60;1.50;;;25.40;48.60;;;;;;5037601;28;20033;-62
2022/06/16 11:38:19;;;;;;;1.90;1.42;;;25.40;48.60;;;;;;5036244;28;20281;-64
2022/06/16 11:40:55;;;;;;;1.83;1.30;;;25.40;48.60;;;;;;5037059;28;20036;-63
2022/06/16 11:43:39;;;;;;;1.70;1.40;;;25.40;48.60;;;;;;5034136;28;20485;-63
2022/06/16 11:46:14;;;;;;;1.90;1.35;;;25.40;48.60;;;;;;5033827;28;20060;-63
2022/06/16 11:49:15;;;;;;;2.25;1.50;;;25.40;48.60;;;;;;5036794;28;20029;-62
2022/06/16 11:51:45;;;;;;;3.28;1.50;;;25.40;48.60;;;;;;5035033;28;20542;-60
2022/06/16 11:54:25;;;;;;;1.65;1.30;;;25.40;48.50;;;;;;5032082;28;20041;-64
2022/06/16 11:57:16;;;;;;;;;;;25.40;48.50;;;;;;5035229;28;20028;-61
2022/06/16 12:00:03;;;;;;;1.42;1.30;;;25.40;48.50;;;;;;5027070;28;19927;-63
2022/06/16 12:02:35;;;;;;;1.65;1.27;;;25.40;48.50;;;;;;5055645;28;20037;-63
2022/06/16 12:05:33;;;;;;;1.67;1.30;;;25.40;48.60;;;;;;5057040;28;20893;-65
2022/06/16 12:08:04;;;;;;;2.00;1.60;;;25.40;48.60;;;;;;5053603;28;20028;-62
2022/06/16 12:10:52;;;;;;;2.22;1.30;;;25.40;48.60;;;;;;5058752;28;20036;-65
2022/06/16 12:13:24;;;;;;;2.15;1.40;;;25.40;48.60;;;;;;5056275;28;20104;-61
2022/06/16 12:16:02;;;;;;;2.92;1.80;;;25.40;48.80;;;;;;5053555;28;20024;-64
2022/06/16 12:18:52;;;;;;;2.50;1.70;;;25.40;48.80;;;;;;5054552;28;20035;-64
2022/06/16 12:21:27;;;;;;;4.05;2.17;;;25.40;49.00;;;;;;5054900;28;20996;-62
2022/06/16 12:24:06;;;;;;;5.63;2.55;;;25.40;49.10;;;;;;5055443;28;20028;-64
2022/06/16 12:26:51;;;;;;;4.60;2.58;;;25.40;49.20;;;;;;5056744;28;20160;-63
2022/06/16 12:29:36;;;;;;;4.63;2.60;;;25.40;49.30;;;;;;5055933;28;20501;-64
2022/06/16 12:32:31;;;;;;;6.30;2.90;;;25.50;49.40;;;;;;5054323;28;20139;-64
2022/06/16 12:35:16;;;;;;;5.20;2.67;;;25.50;49.40;;;;;;5057232;28;20123;-60
2022/06/16 12:37:54;;;;;;;6.82;2.88;;;25.50;49.40;;;;;;5066073;28;20063;-65
2022/06/16 12:40:33;;;;;;;4.75;2.60;;;25.50;49.30;;;;;;5054353;28;20028;-63
2022/06/16 12:43:09;;;;;;;4.47;2.60;;;25.50;49.30;;;;;;5055611;28;20021;-65
2022/06/16 12:45:40;;;;;;;5.30;3.28;;;25.50;49.70;;;;;;5055506;28;20025;-62
2022/06/16 12:48:22;;;;;;;5.80;3.05;;;25.50;49.80;;;;;;5054101;28;20028;-64
2022/06/16 12:50:57;;;;;;;5.07;2.78;;;25.50;49.90;;;;;;5057084;28;20035;-60
2022/06/16 12:53:33;;;;;;;5.10;2.95;;;25.50;50.00;;;;;;5051917;28;20048;-61
2022/06/16 12:56:12;;;;;;;6.57;3.20;;;25.50;50.10;;;;;;5052788;28;20032;-64
2022/06/16 12:58:42;;;;;;;;;;;25.50;50.20;;;;;;5056269;28;20043;-65
2022/06/16 13:01:11;;;;;;;4.88;2.88;;;25.50;50.30;;;;;;5055253;28;19967;-63
2022/06/16 13:03:43;;;;;;;5.10;2.80;;;25.60;50.60;;;;;;5056541;28;20460;-66
2022/06/16 13:06:11;;;;;;;4.28;2.28;;;25.60;50.60;;;;;;5054283;28;20565;-65
2022/06/16 13:08:41;;;;;;;4.93;2.75;;;25.60;50.50;;;;;;5055446;28;20020;-66
2022/06/16 13:11:12;;;;;;;5.95;3.08;;;25.60;50.50;;;;;;5055099;28;20059;-65
2022/06/16 13:13:45;;;;;;;3.80;2.17;;;25.60;50.60;;;;;;5056150;28;20078;-65
2022/06/16 13:16:17;;;;;;;4.93;2.45;;;25.60;50.50;;;;;;5055449;28;20392;-65
2022/06/16 13:18:50;;;;;;;3.95;2.30;;;25.60;50.50;;;;;;5056336;28;20039;-65
2022/06/16 13:21:23;;;;;;;3.65;2.20;;;25.70;50.50;;;;;;5055869;28;20060;-65
2022/06/16 13:23:55;;;;;;;4.20;2.58;;;25.70;50.60;;;;;;5052730;28;20077;-65
2022/06/16 13:26:30;;;;;;;4.40;2.53;;;25.70;50.60;;;;;;5055211;28;20032;-62
2022/06/16 13:29:42;;;;;;;3.88;2.40;;;25.70;50.70;;;;;;5053046;28;20050;-66
2022/06/16 13:32:21;;;;;;;5.05;2.40;;;25.70;50.70;;;;;;5007254;28;20552;-64
2022/06/16 13:34:53;;;;;;;4.68;2.40;;;25.70;50.80;;;;;;5051914;28;20803;-61
2022/06/16 13:37:38;;;;;;;4.88;2.50;;;25.70;50.60;;;;;;5055484;28;20559;-62
2022/06/16 13:40:07;;;;;;;4.32;2.30;;;25.70;50.70;;;;;;5052162;28;20101;-60